createdAt,value
2022-10-05T06:44:00.694Z,12.25
2022-10-05T06:47:38.016Z,13.52
2022-10-05T06:50:44.424Z,11.98
2022-10-05T06:54:04.059Z,18.23
2022-10-05T06:56:45.582Z,12.00
2022-10-05T06:59:35.744Z,15.80
2022-10-05T07:02:22.189Z,19.67
2022-10-05T07:05:31.415Z,12.02
2022-10-05T07:08:06.267Z,12.82
2022-10-05T07:10:59.242Z,13.95
2022-10-05T07:14:04.057Z,11.85
2022-10-05T07:17:23.650Z,10.20
2022-10-05T07:20:26.720Z,11.20
2022-10-05T07:23:14.193Z,16.92
2022-10-05T07:25:54.868Z,13.63
2022-10-05T07:28:35.119Z,11.07
2022-10-05T07:31:09.674Z,10.63
2022-10-05T07:33:47.070Z,9.80
2022-10-05T07:37:11.855Z,8.90
2022-10-05T07:40:00.690Z,8.30
2022-10-05T07:43:03.403Z,6.68
2022-10-05T07:45:46.485Z,7.60
2022-10-05T08:03:39.715Z,4.57
2022-10-05T08:17:54.390Z,5.13
2022-10-05T08:20:54.587Z,6.60
2022-10-05T08:23:55.036Z,5.45
2022-10-05T08:27:01.063Z,4.75
2022-10-05T08:29:47.476Z,5.07
2022-10-05T08:32:57.025Z,4.57
2022-10-05T08:35:43.907Z,4.10
2022-10-05T08:38:19.561Z,4.22
2022-10-05T08:41:23.450Z,5.68
2022-10-05T08:44:04.416Z,4.68
2022-10-05T08:47:03.655Z,5.70
2022-10-05T08:49:56.542Z,4.47
2022-10-05T08:52:55.914Z,4.63
2022-10-05T08:56:03.951Z,4.88
2022-10-05T08:59:05.944Z,3.90
2022-10-05T09:02:24.613Z,3.88
2022-10-05T09:05:21.750Z,5.35
2022-10-05T09:08:20.641Z,3.63
2022-10-05T09:11:31.833Z,4.07
2022-10-05T09:14:07.138Z,4.63
2022-10-05T09:17:05.207Z,3.53
2022-10-05T09:19:50.742Z,4.15
2022-10-05T09:22:38.329Z,5.10
2022-10-05T09:25:23.554Z,3.47
2022-10-05T09:28:02.383Z,3.53
2022-10-05T09:30:52.932Z,3.67
2022-10-05T09:33:41.581Z,4.13
2022-10-05T09:36:48.362Z,4.68
2022-10-05T09:39:43.239Z,3.95
2022-10-05T09:42:54.025Z,3.70
2022-10-05T09:46:14.193Z,4.32
2022-10-05T09:49:18.814Z,2.90
2022-10-05T09:52:06.774Z,2.63
2022-10-05T09:55:08.187Z,3.35
2022-10-05T09:58:40.596Z,3.03
2022-10-05T10:01:54.447Z,3.45
2022-10-05T10:04:30.529Z,3.28
2022-10-05T10:07:13.683Z,2.90
2022-10-05T10:10:06.061Z,6.00
2022-10-05T10:16:10.894Z,2.70
2022-10-05T10:19:41.737Z,3.23
2022-10-05T10:23:15.373Z,4.72
2022-10-05T10:26:21.867Z,3.78
2022-10-05T10:32:47.402Z,3.75
2022-10-05T10:35:34.754Z,3.17
2022-10-05T10:38:35.166Z,3.78
2022-10-05T10:41:35.681Z,3.55
2022-10-05T10:44:55.142Z,3.25
2022-10-05T10:47:40.993Z,3.95
2022-10-05T10:50:37.446Z,3.35
2022-10-05T10:53:52.610Z,4.18
2022-10-05T10:57:05.432Z,3.28
2022-10-05T11:00:21.597Z,4.28
2022-10-05T11:03:18.823Z,3.65
2022-10-05T11:06:12.971Z,4.45
2022-10-05T11:08:51.918Z,3.80
2022-10-05T11:11:51.323Z,4.40
2022-10-05T11:14:21.773Z,4.32
2022-10-05T11:17:19.789Z,3.90
2022-10-05T11:20:40.774Z,3.85
2022-10-05T11:23:51.066Z,5.57
2022-10-05T11:27:15.562Z,3.72
2022-10-05T11:30:11.349Z,3.95
2022-10-05T11:33:12.582Z,4.80
2022-10-05T11:36:09.074Z,4.85
2022-10-05T11:39:17.483Z,4.05
2022-10-05T11:42:05.726Z,4.80
2022-10-05T11:45:22.313Z,3.60
2022-10-05T11:48:36.409Z,5.95
2022-10-05T11:51:37.005Z,3.78
2022-10-05T11:55:06.010Z,3.53
2022-10-05T11:58:02.358Z,3.83
2022-10-05T12:00:44.402Z,5.53
2022-10-05T12:03:41.104Z,3.88
2022-10-05T12:06:48.501Z,4.75
2022-10-05T12:09:31.643Z,5.78
2022-10-05T12:12:29.632Z,3.72
2022-10-05T12:15:26.952Z,3.20
2022-10-05T12:18:10.654Z,3.85
2022-10-05T12:21:11.476Z,2.90
2022-10-05T12:23:52.713Z,2.78
2022-10-05T12:26:28.993Z,2.83
2022-10-05T12:29:17.820Z,3.78
2022-10-05T12:31:59.589Z,3.13
2022-10-05T12:35:01.475Z,4.18
2022-10-05T12:41:07.296Z,4.32
2022-10-05T12:43:55.375Z,3.55
2022-10-05T12:46:39.760Z,2.90
2022-10-05T12:49:27.249Z,4.07
2022-10-05T12:52:02.533Z,2.38
2022-10-05T12:55:02.280Z,3.92
2022-10-05T12:57:49.110Z,2.17
2022-10-05T13:00:22.926Z,3.00
2022-10-05T13:03:00.052Z,4.20
2022-10-05T13:06:00.322Z,3.97
2022-10-05T13:09:10.266Z,2.88
2022-10-05T13:11:52.665Z,2.50
2022-10-05T13:14:45.043Z,2.47
2022-10-05T13:17:22.407Z,2.40
2022-10-05T13:20:07.581Z,2.03
2022-10-05T13:22:43.388Z,3.97
2022-10-05T13:25:27.302Z,3.42
2022-10-05T13:28:08.611Z,3.80
2022-10-05T13:30:40.569Z,2.42
2022-10-05T13:33:38.782Z,2.47
2022-10-05T13:36:16.136Z,2.90
2022-10-05T13:39:39.007Z,3.58
2022-10-05T13:42:36.162Z,3.42
2022-10-05T13:45:29.558Z,2.90
2022-10-05T13:48:16.418Z,3.03
2022-10-05T13:51:23.642Z,2.90
2022-10-05T13:54:13.806Z,3.00
2022-10-05T13:56:51.543Z,2.55
2022-10-05T13:59:38.402Z,3.03
2022-10-05T14:02:17.143Z,3.55
2022-10-05T14:04:51.619Z,3.33
2022-10-05T14:07:37.025Z,3.95
2022-10-05T14:10:13.592Z,5.13
2022-10-05T14:12:45.679Z,3.47
2022-10-05T14:15:32.485Z,3.65
2022-10-05T14:18:17.595Z,3.72
2022-10-05T14:21:03.350Z,3.03
2022-10-05T14:23:31.252Z,3.03
2022-10-05T14:25:59.572Z,3.33
2022-10-05T14:28:38.407Z,3.42
2022-10-05T14:31:28.601Z,3.33
2022-10-05T14:33:55.903Z,4.47
2022-10-05T14:37:00.233Z,2.95
2022-10-05T14:39:52.195Z,2.80
2022-10-05T14:42:28.327Z,3.35
2022-10-05T14:45:15.767Z,3.65
2022-10-05T14:48:10.235Z,2.88
2022-10-05T14:51:03.976Z,3.67
2022-10-05T14:53:58.612Z,3.53
2022-10-05T14:56:53.394Z,3.28
2022-10-05T15:00:10.267Z,4.28
2022-10-05T15:03:10.710Z,3.80
2022-10-05T15:05:56.406Z,2.75
2022-10-05T15:09:17.065Z,3.13
2022-10-05T15:11:50.907Z,4.28
2022-10-05T15:14:31.858Z,3.70
2022-10-05T15:17:17.200Z,3.83
2022-10-05T15:20:25.536Z,3.20
2022-10-05T15:23:24.526Z,2.78
2022-10-05T15:26:15.275Z,3.17
2022-10-05T15:30:00.812Z,4.60
2022-10-05T15:33:01.121Z,4.90
2022-10-05T15:36:14.519Z,3.47
2022-10-05T15:39:21.295Z,2.67
2022-10-05T15:42:09.972Z,4.03
2022-10-05T15:45:06.129Z,3.78
2022-10-05T15:48:07.914Z,4.35
2022-10-05T15:51:05.778Z,5.60
2022-10-05T15:54:36.733Z,3.70
2022-10-05T15:57:20.236Z,2.70
2022-10-05T16:00:11.915Z,5.63
2022-10-05T16:03:23.625Z,5.78
2022-10-05T16:06:20.897Z,4.05
2022-10-05T16:09:10.262Z,3.95
2022-10-05T16:11:56.491Z,4.10
2022-10-05T16:14:55.836Z,4.75
2022-10-05T16:18:07.491Z,4.13
2022-10-05T16:21:02.409Z,3.80
2022-10-05T16:23:32.757Z,3.58
2022-10-05T16:26:43.739Z,4.50
2022-10-05T16:29:46.708Z,4.32
2022-10-05T16:32:34.206Z,5.40
2022-10-05T16:47:05.682Z,4.70
2022-10-05T16:51:13.191Z,4.68
2022-10-05T17:10:21.972Z,6.40
2022-10-05T17:24:33.190Z,10.88
2022-10-05T18:21:30.968Z,10.23
2022-10-05T18:33:10.245Z,13.25
2022-10-05T18:36:03.313Z,11.23
2022-10-05T18:39:37.025Z,14.18
2022-10-05T18:42:51.810Z,11.80
2022-10-05T18:45:30.687Z,13.48
2022-10-05T18:48:28.603Z,14.13
2022-10-05T18:51:36.278Z,11.77
2022-10-05T18:54:25.461Z,15.50
2022-10-05T18:56:54.673Z,13.45
2022-10-05T19:00:17.748Z,12.13
2022-10-05T19:03:19.528Z,14.20
2022-10-05T19:06:04.399Z,18.77
2022-10-05T19:08:59.999Z,16.33
2022-10-05T19:11:51.239Z,15.13
2022-10-05T19:14:37.445Z,16.70
2022-10-05T19:18:06.251Z,16.27
2022-10-05T19:21:02.445Z,17.33
2022-10-05T19:23:48.438Z,17.05
2022-10-05T19:26:50.003Z,14.80
2022-10-05T19:29:56.307Z,14.68
2022-10-05T19:33:05.201Z,15.38
2022-10-05T19:36:08.722Z,17.55
2022-10-05T19:39:21.227Z,15.90
2022-10-05T19:42:18.059Z,17.20
2022-10-05T19:45:18.935Z,18.27
2022-10-05T19:47:56.080Z,16.25
2022-10-05T19:50:23.247Z,17.90
2022-10-05T19:53:02.399Z,15.07
2022-10-05T20:04:44.710Z,15.88
2022-10-05T20:07:17.035Z,15.23
2022-10-05T20:10:42.943Z,16.15
2022-10-05T20:15:18.829Z,16.88
2022-10-05T20:18:06.074Z,13.63
2022-10-05T20:20:47.031Z,14.23
2022-10-05T20:23:25.543Z,14.13
2022-10-05T20:26:12.753Z,14.95
2022-10-05T20:28:40.883Z,14.13
2022-10-05T20:31:09.419Z,15.18
2022-10-05T20:33:39.189Z,17.20
2022-10-05T20:36:09.123Z,13.80
2022-10-05T20:38:40.775Z,13.93
2022-10-05T20:41:08.970Z,14.90
2022-10-05T20:43:39.335Z,13.82
2022-10-05T20:46:33.725Z,12.55
2022-10-05T20:49:03.512Z,15.27
2022-10-05T20:51:30.784Z,16.38
2022-10-05T20:54:00.010Z,16.08
2022-10-05T21:01:15.451Z,14.20
2022-10-05T21:03:42.656Z,14.68
2022-10-05T21:06:11.007Z,13.90
2022-10-05T21:08:38.411Z,16.00
2022-10-05T21:11:08.873Z,15.98
2022-10-05T21:13:38.517Z,14.35
2022-10-05T21:16:08.742Z,14.73
2022-10-05T21:18:35.889Z,15.40
2022-10-05T21:21:03.477Z,16.20
2022-10-05T21:23:32.545Z,16.20
2022-10-05T21:26:10.780Z,15.57
2022-10-05T21:28:40.173Z,15.15
2022-10-05T21:31:08.624Z,14.50
2022-10-05T21:33:36.410Z,15.55
2022-10-05T21:36:04.822Z,16.55
2022-10-05T21:38:32.314Z,17.48
2022-10-05T21:40:59.463Z,16.80
2022-10-05T21:43:27.808Z,14.80
2022-10-05T21:45:56.012Z,16.08
2022-10-05T21:48:25.532Z,16.48
2022-10-05T21:50:53.974Z,17.30
2022-10-05T21:53:29.833Z,15.30
2022-10-05T21:56:10.679Z,15.10
2022-10-05T21:59:00.995Z,15.98
2022-10-05T22:01:32.164Z,15.50
2022-10-05T22:03:59.246Z,17.00
2022-10-05T22:06:26.317Z,14.75
2022-10-05T22:08:58.341Z,15.38
2022-10-05T22:11:26.369Z,14.77
2022-10-05T22:14:01.937Z,14.50
2022-10-05T22:16:34.259Z,14.30
2022-10-05T22:19:12.731Z,15.00
2022-10-05T22:21:41.727Z,13.70
2022-10-05T22:24:12.501Z,15.73
2022-10-05T22:26:43.746Z,17.15
2022-10-05T22:29:11.604Z,16.42
2022-10-05T22:31:39.253Z,16.73
2022-10-05T22:34:06.782Z,15.52
2022-10-05T22:36:54.231Z,16.90
2022-10-05T22:39:22.234Z,22.45
2022-10-05T22:41:50.349Z,15.85
2022-10-05T22:44:17.510Z,16.45
2022-10-05T22:46:45.170Z,17.00
2022-10-05T22:49:22.244Z,15.80
2022-10-05T22:56:20.733Z,15.18
2022-10-05T23:15:08.002Z,16.88
2022-10-05T23:17:38.952Z,18.33
2022-10-05T23:21:24.495Z,13.45
2022-10-05T23:28:53.116Z,14.05
2022-10-05T23:31:33.727Z,12.93
2022-10-05T23:34:01.220Z,13.88
2022-10-05T23:36:32.333Z,14.15
2022-10-05T23:39:01.090Z,14.23
2022-10-05T23:41:30.782Z,14.25
2022-10-05T23:44:00.682Z,13.77
2022-10-05T23:55:15.737Z,16.47
2022-10-05T23:57:50.749Z,13.70
